sensor_id;sensor_type;location;lat;lon;timestamp;P1;durP1;ratioP1;P2;durP2;ratioP2
76262;SDS011;65080;50.908;6.916;2023-06-10T00:00:49;8.13;;;6.83;;
76262;SDS011;65080;50.908;6.916;2023-06-10T00:03:18;8.00;;;7.20;;
76262;SDS011;65080;50.908;6.916;2023-06-10T00:05:58;9.60;;;7.20;;
76262;SDS011;65080;50.908;6.916;2023-06-10T00:08:29;11.60;;;7.27;;
76262;SDS011;65080;50.908;6.916;2023-06-10T00:10:58;9.47;;;8.47;;
76262;SDS011;65080;50.908;6.916;2023-06-10T00:13:27;7.27;;;6.57;;
76262;SDS011;65080;50.908;6.916;2023-06-10T00:15:55;10.10;;;7.30;;
76262;SDS011;65080;50.908;6.916;2023-06-10T00:18:23;7.53;;;6.73;;
76262;SDS011;65080;50.908;6.916;2023-06-10T00:20:53;8.67;;;7.77;;
76262;SDS011;65080;50.908;6.916;2023-06-10T00:23:23;8.33;;;7.20;;
76262;SDS011;65080;50.908;6.916;2023-06-10T00:25:52;7.90;;;7.17;;
76262;SDS011;65080;50.908;6.916;2023-06-10T00:28:20;8.80;;;7.93;;
76262;SDS011;65080;50.908;6.916;2023-06-10T00:30:48;8.37;;;7.40;;
76262;SDS011;65080;50.908;6.916;2023-06-10T00:33:17;8.27;;;7.47;;
76262;SDS011;65080;50.908;6.916;2023-06-10T00:35:46;10.57;;;7.63;;
76262;SDS011;65080;50.908;6.916;2023-06-10T00:38:14;9.10;;;8.20;;
76262;SDS011;65080;50.908;6.916;2023-06-10T00:40:44;8.80;;;7.30;;
76262;SDS011;65080;50.908;6.916;2023-06-10T00:43:13;9.70;;;8.43;;
76262;SDS011;65080;50.908;6.916;2023-06-10T00:45:41;10.17;;;7.70;;
76262;SDS011;65080;50.908;6.916;2023-06-10T00:48:10;8.40;;;7.60;;
76262;SDS011;65080;50.908;6.916;2023-06-10T00:50:38;7.83;;;7.07;;
76262;SDS011;65080;50.908;6.916;2023-06-10T00:53:07;9.00;;;8.20;;
76262;SDS011;65080;50.908;6.916;2023-06-10T00:55:41;9.60;;;8.43;;
76262;SDS011;65080;50.908;6.916;2023-06-10T00:58:14;8.43;;;7.47;;
76262;SDS011;65080;50.908;6.916;2023-06-10T01:00:43;9.47;;;8.30;;
76262;SDS011;65080;50.908;6.916;2023-06-10T01:03:13;8.23;;;7.43;;
76262;SDS011;65080;50.908;6.916;2023-06-10T01:05:44;12.13;;;8.57;;
76262;SDS011;65080;50.908;6.916;2023-06-10T01:08:23;8.40;;;7.53;;
76262;SDS011;65080;50.908;6.916;2023-06-10T01:11:01;8.80;;;8.00;;
76262;SDS011;65080;50.908;6.916;2023-06-10T01:13:47;10.30;;;8.13;;
76262;SDS011;65080;50.908;6.916;2023-06-10T01:16:34;9.40;;;8.47;;
76262;SDS011;65080;50.908;6.916;2023-06-10T01:19:06;9.60;;;8.60;;
76262;SDS011;65080;50.908;6.916;2023-06-10T01:21:38;10.33;;;9.33;;
76262;SDS011;65080;50.908;6.916;2023-06-10T01:24:07;8.90;;;7.70;;
76262;SDS011;65080;50.908;6.916;2023-06-10T01:26:37;11.20;;;8.10;;
76262;SDS011;65080;50.908;6.916;2023-06-10T01:29:09;9.97;;;7.70;;
76262;SDS011;65080;50.908;6.916;2023-06-10T01:31:56;12.30;;;8.30;;
76262;SDS011;65080;50.908;6.916;2023-06-10T01:37:07;10.70;;;7.90;;
76262;SDS011;65080;50.908;6.916;2023-06-10T01:39:37;10.70;;;8.73;;
76262;SDS011;65080;50.908;6.916;2023-06-10T01:42:06;10.37;;;8.63;;
76262;SDS011;65080;50.908;6.916;2023-06-10T01:44:36;8.60;;;7.80;;
76262;SDS011;65080;50.908;6.916;2023-06-10T01:47:06;9.53;;;8.57;;
76262;SDS011;65080;50.908;6.916;2023-06-10T01:49:35;8.73;;;7.83;;
76262;SDS011;65080;50.908;6.916;2023-06-10T01:52:03;8.63;;;7.83;;
76262;SDS011;65080;50.908;6.916;2023-06-10T01:54:33;9.30;;;8.40;;
76262;SDS011;65080;50.908;6.916;2023-06-10T01:57:02;11.10;;;10.00;;
76262;SDS011;65080;50.908;6.916;2023-06-10T01:59:32;12.40;;;9.70;;
76262;SDS011;65080;50.908;6.916;2023-06-10T02:02:00;9.70;;;8.70;;
76262;SDS011;65080;50.908;6.916;2023-06-10T02:04:29;9.00;;;8.10;;
76262;SDS011;65080;50.908;6.916;2023-06-10T02:06:57;10.77;;;8.60;;
76262;SDS011;65080;50.908;6.916;2023-06-10T02:09:25;9.70;;;8.47;;
76262;SDS011;65080;50.908;6.916;2023-06-10T02:11:55;13.37;;;8.30;;
76262;SDS011;65080;50.908;6.916;2023-06-10T02:14:23;9.20;;;8.30;;
76262;SDS011;65080;50.908;6.916;2023-06-10T02:16:52;8.80;;;7.90;;
76262;SDS011;65080;50.908;6.916;2023-06-10T02:19:23;12.40;;;10.00;;
76262;SDS011;65080;50.908;6.916;2023-06-10T02:21:54;10.03;;;8.23;;
76262;SDS011;65080;50.908;6.916;2023-06-10T02:24:22;11.20;;;8.30;;
76262;SDS011;65080;50.908;6.916;2023-06-10T02:26:50;10.00;;;8.83;;
76262;SDS011;65080;50.908;6.916;2023-06-10T02:29:20;10.30;;;8.40;;
76262;SDS011;65080;50.908;6.916;2023-06-10T02:31:48;10.60;;;7.83;;
76262;SDS011;65080;50.908;6.916;2023-06-10T02:34:19;16.97;;;8.67;;
76262;SDS011;65080;50.908;6.916;2023-06-10T02:36:47;8.93;;;8.13;;
76262;SDS011;65080;50.908;6.916;2023-06-10T02:39:17;8.87;;;8.00;;
76262;SDS011;65080;50.908;6.916;2023-06-10T02:41:45;9.90;;;8.90;;
76262;SDS011;65080;50.908;6.916;2023-06-10T02:44:14;9.40;;;8.37;;
76262;SDS011;65080;50.908;6.916;2023-06-10T02:46:43;9.40;;;7.80;;
76262;SDS011;65080;50.908;6.916;2023-06-10T02:49:12;12.87;;;9.80;;
76262;SDS011;65080;50.908;6.916;2023-06-10T02:51:40;9.67;;;8.20;;
76262;SDS011;65080;50.908;6.916;2023-06-10T02:54:08;9.30;;;8.20;;
76262;SDS011;65080;50.908;6.916;2023-06-10T02:56:36;11.57;;;9.40;;
76262;SDS011;65080;50.908;6.916;2023-06-10T02:59:08;10.50;;;8.53;;
76262;SDS011;65080;50.908;6.916;2023-06-10T03:01:37;10.70;;;8.63;;
76262;SDS011;65080;50.908;6.916;2023-06-10T03:04:06;10.37;;;9.27;;
76262;SDS011;65080;50.908;6.916;2023-06-10T03:06:35;14.43;;;8.70;;
76262;SDS011;65080;50.908;6.916;2023-06-10T03:09:05;10.00;;;7.70;;
76262;SDS011;65080;50.908;6.916;2023-06-10T03:11:33;10.17;;;9.03;;
76262;SDS011;65080;50.908;6.916;2023-06-10T03:14:02;17.30;;;9.20;;
76262;SDS011;65080;50.908;6.916;2023-06-10T03:16:30;9.87;;;8.97;;
76262;SDS011;65080;50.908;6.916;2023-06-10T03:18:58;11.43;;;8.70;;
76262;SDS011;65080;50.908;6.916;2023-06-10T03:21:28;10.60;;;8.47;;
76262;SDS011;65080;50.908;6.916;2023-06-10T03:23:56;10.93;;;9.53;;
76262;SDS011;65080;50.908;6.916;2023-06-10T03:26:25;10.17;;;8.27;;
76262;SDS011;65080;50.908;6.916;2023-06-10T03:28:54;9.30;;;8.40;;
76262;SDS011;65080;50.908;6.916;2023-06-10T03:31:22;11.27;;;9.90;;
76262;SDS011;65080;50.908;6.916;2023-06-10T03:33:51;9.47;;;8.50;;
76262;SDS011;65080;50.908;6.916;2023-06-10T03:36:20;12.43;;;8.63;;
76262;SDS011;65080;50.908;6.916;2023-06-10T03:38:49;9.37;;;8.37;;
76262;SDS011;65080;50.908;6.916;2023-06-10T03:41:18;9.97;;;8.97;;
76262;SDS011;65080;50.908;6.916;2023-06-10T03:43:47;11.63;;;9.50;;
76262;SDS011;65080;50.908;6.916;2023-06-10T03:46:16;11.27;;;9.47;;
76262;SDS011;65080;50.908;6.916;2023-06-10T03:48:45;11.80;;;10.57;;
76262;SDS011;65080;50.908;6.916;2023-06-10T03:51:14;10.30;;;9.30;;
76262;SDS011;65080;50.908;6.916;2023-06-10T03:53:43;9.57;;;8.67;;
76262;SDS011;65080;50.908;6.916;2023-06-10T03:56:12;10.07;;;9.00;;
76262;SDS011;65080;50.908;6.916;2023-06-10T03:58:41;10.43;;;9.43;;
76262;SDS011;65080;50.908;6.916;2023-06-10T04:01:13;11.23;;;9.60;;
76262;SDS011;65080;50.908;6.916;2023-06-10T04:03:41;8.87;;;8.07;;
76262;SDS011;65080;50.908;6.916;2023-06-10T04:06:10;10.43;;;9.33;;
76262;SDS011;65080;50.908;6.916;2023-06-10T04:08:38;11.53;;;10.20;;
76262;SDS011;65080;50.908;6.916;2023-06-10T04:11:07;10.67;;;9.67;;
76262;SDS011;65080;50.908;6.916;2023-06-10T04:13:36;14.77;;;10.07;;
76262;SDS011;65080;50.908;6.916;2023-06-10T04:16:05;11.43;;;9.87;;
76262;SDS011;65080;50.908;6.916;2023-06-10T04:18:33;10.27;;;9.20;;
76262;SDS011;65080;50.908;6.916;2023-06-10T04:21:02;10.53;;;8.67;;
76262;SDS011;65080;50.908;6.916;2023-06-10T04:23:30;10.70;;;8.90;;
76262;SDS011;65080;50.908;6.916;2023-06-10T04:25:59;10.60;;;9.50;;
76262;SDS011;65080;50.908;6.916;2023-06-10T04:28:27;11.90;;;9.13;;
76262;SDS011;65080;50.908;6.916;2023-06-10T04:30:56;12.93;;;9.60;;
76262;SDS011;65080;50.908;6.916;2023-06-10T04:33:25;11.43;;;10.27;;
76262;SDS011;65080;50.908;6.916;2023-06-10T04:35:54;11.73;;;9.37;;
76262;SDS011;65080;50.908;6.916;2023-06-10T04:38:23;10.20;;;9.10;;
76262;SDS011;65080;50.908;6.916;2023-06-10T04:40:51;10.23;;;9.13;;
76262;SDS011;65080;50.908;6.916;2023-06-10T04:43:19;9.73;;;8.83;;
76262;SDS011;65080;50.908;6.916;2023-06-10T04:45:48;9.83;;;8.83;;
76262;SDS011;65080;50.908;6.916;2023-06-10T04:48:18;11.03;;;9.40;;
76262;SDS011;65080;50.908;6.916;2023-06-10T04:50:46;10.23;;;9.13;;
76262;SDS011;65080;50.908;6.916;2023-06-10T04:53:14;9.27;;;8.43;;
76262;SDS011;65080;50.908;6.916;2023-06-10T04:55:43;9.80;;;8.90;;
76262;SDS011;65080;50.908;6.916;2023-06-10T04:58:12;11.10;;;8.87;;
76262;SDS011;65080;50.908;6.916;2023-06-10T05:00:40;9.63;;;8.47;;
76262;SDS011;65080;50.908;6.916;2023-06-10T05:03:10;10.63;;;9.17;;
76262;SDS011;65080;50.908;6.916;2023-06-10T05:05:40;10.17;;;9.27;;
76262;SDS011;65080;50.908;6.916;2023-06-10T05:08:08;9.70;;;8.73;;
76262;SDS011;65080;50.908;6.916;2023-06-10T05:10:36;10.63;;;9.00;;
76262;SDS011;65080;50.908;6.916;2023-06-10T05:13:05;10.20;;;9.13;;
76262;SDS011;65080;50.908;6.916;2023-06-10T05:15:33;9.93;;;8.80;;
76262;SDS011;65080;50.908;6.916;2023-06-10T05:18:01;9.70;;;8.70;;
76262;SDS011;65080;50.908;6.916;2023-06-10T05:20:30;10.60;;;9.50;;
76262;SDS011;65080;50.908;6.916;2023-06-10T05:22:59;12.57;;;9.00;;
76262;SDS011;65080;50.908;6.916;2023-06-10T05:25:28;9.73;;;8.80;;
76262;SDS011;65080;50.908;6.916;2023-06-10T05:27:59;10.27;;;9.03;;
76262;SDS011;65080;50.908;6.916;2023-06-10T05:30:27;9.00;;;8.07;;
76262;SDS011;65080;50.908;6.916;2023-06-10T05:32:55;11.03;;;8.97;;
76262;SDS011;65080;50.908;6.916;2023-06-10T05:35:24;8.80;;;7.90;;
76262;SDS011;65080;50.908;6.916;2023-06-10T05:37:52;10.87;;;7.87;;
76262;SDS011;65080;50.908;6.916;2023-06-10T05:40:21;8.70;;;7.63;;
76262;SDS011;65080;50.908;6.916;2023-06-10T05:42:50;9.83;;;7.23;;
76262;SDS011;65080;50.908;6.916;2023-06-10T05:45:18;10.50;;;6.33;;
76262;SDS011;65080;50.908;6.916;2023-06-10T05:47:46;6.50;;;5.90;;
76262;SDS011;65080;50.908;6.916;2023-06-10T05:50:14;7.13;;;6.27;;
76262;SDS011;65080;50.908;6.916;2023-06-10T05:52:43;7.80;;;6.37;;
76262;SDS011;65080;50.908;6.916;2023-06-10T05:55:11;6.80;;;6.07;;
76262;SDS011;65080;50.908;6.916;2023-06-10T05:57:42;7.57;;;6.37;;
76262;SDS011;65080;50.908;6.916;2023-06-10T06:00:10;6.53;;;5.80;;
76262;SDS011;65080;50.908;6.916;2023-06-10T06:02:39;8.33;;;6.60;;
76262;SDS011;65080;50.908;6.916;2023-06-10T06:05:08;9.37;;;6.73;;
76262;SDS011;65080;50.908;6.916;2023-06-10T06:07:37;6.73;;;5.73;;
76262;SDS011;65080;50.908;6.916;2023-06-10T06:10:05;8.23;;;5.90;;
76262;SDS011;65080;50.908;6.916;2023-06-10T06:12:34;9.37;;;5.87;;
76262;SDS011;65080;50.908;6.916;2023-06-10T06:15:04;6.60;;;5.90;;
76262;SDS011;65080;50.908;6.916;2023-06-10T06:17:35;7.53;;;6.03;;
76262;SDS011;65080;50.908;6.916;2023-06-10T06:20:03;7.37;;;5.90;;
76262;SDS011;65080;50.908;6.916;2023-06-10T06:22:33;7.10;;;6.40;;
76262;SDS011;65080;50.908;6.916;2023-06-10T06:25:01;7.10;;;5.50;;
76262;SDS011;65080;50.908;6.916;2023-06-10T06:27:30;5.73;;;4.70;;
76262;SDS011;65080;50.908;6.916;2023-06-10T06:29:58;9.13;;;5.40;;
76262;SDS011;65080;50.908;6.916;2023-06-10T06:32:28;8.43;;;5.60;;
76262;SDS011;65080;50.908;6.916;2023-06-10T06:34:57;7.23;;;5.53;;
76262;SDS011;65080;50.908;6.916;2023-06-10T06:37:25;6.50;;;5.77;;
76262;SDS011;65080;50.908;6.916;2023-06-10T06:39:53;8.20;;;5.50;;
76262;SDS011;65080;50.908;6.916;2023-06-10T06:42:22;5.93;;;5.17;;
76262;SDS011;65080;50.908;6.916;2023-06-10T06:44:50;10.33;;;5.60;;
76262;SDS011;65080;50.908;6.916;2023-06-10T06:47:18;6.17;;;5.27;;
76262;SDS011;65080;50.908;6.916;2023-06-10T06:49:48;5.97;;;5.23;;
76262;SDS011;65080;50.908;6.916;2023-06-10T06:52:16;7.30;;;5.00;;
76262;SDS011;65080;50.908;6.916;2023-06-10T06:54:45;5.90;;;5.27;;
76262;SDS011;65080;50.908;6.916;2023-06-10T06:57:13;5.60;;;5.10;;
76262;SDS011;65080;50.908;6.916;2023-06-10T06:59:42;8.80;;;5.47;;
76262;SDS011;65080;50.908;6.916;2023-06-10T07:02:10;5.63;;;4.43;;
76262;SDS011;65080;50.908;6.916;2023-06-10T07:04:38;10.43;;;5.13;;
76262;SDS011;65080;50.908;6.916;2023-06-10T07:07:09;6.13;;;5.53;;
76262;SDS011;65080;50.908;6.916;2023-06-10T07:09:37;6.07;;;4.87;;
76262;SDS011;65080;50.908;6.916;2023-06-10T07:12:06;7.33;;;5.87;;
76262;SDS011;65080;50.908;6.916;2023-06-10T07:14:34;5.67;;;5.07;;
76262;SDS011;65080;50.908;6.916;2023-06-10T07:17:03;7.10;;;4.83;;
76262;SDS011;65080;50.908;6.916;2023-06-10T07:19:31;6.33;;;4.83;;
76262;SDS011;65080;50.908;6.916;2023-06-10T07:21:59;6.33;;;4.83;;
76262;SDS011;65080;50.908;6.916;2023-06-10T07:24:29;10.30;;;4.90;;
76262;SDS011;65080;50.908;6.916;2023-06-10T07:26:57;8.60;;;5.20;;
76262;SDS011;65080;50.908;6.916;2023-06-10T07:29:25;6.63;;;4.73;;
76262;SDS011;65080;50.908;6.916;2023-06-10T07:31:54;7.03;;;5.00;;
76262;SDS011;65080;50.908;6.916;2023-06-10T07:34:22;6.10;;;5.50;;
76262;SDS011;65080;50.908;6.916;2023-06-10T07:36:50;6.23;;;5.60;;
76262;SDS011;65080;50.908;6.916;2023-06-10T07:39:18;6.93;;;5.87;;
76262;SDS011;65080;50.908;6.916;2023-06-10T07:41:48;6.90;;;5.60;;
76262;SDS011;65080;50.908;6.916;2023-06-10T07:44:16;6.50;;;4.67;;
76262;SDS011;65080;50.908;6.916;2023-06-10T07:46:44;9.23;;;5.37;;
76262;SDS011;65080;50.908;6.916;2023-06-10T07:49:12;6.00;;;5.40;;
76262;SDS011;65080;50.908;6.916;2023-06-10T07:51:41;5.57;;;5.00;;
76262;SDS011;65080;50.908;6.916;2023-06-10T07:54:09;8.37;;;5.37;;
76262;SDS011;65080;50.908;6.916;2023-06-10T07:56:38;9.57;;;5.97;;
76262;SDS011;65080;50.908;6.916;2023-06-10T07:59:08;6.47;;;5.30;;
76262;SDS011;65080;50.908;6.916;2023-06-10T08:01:36;10.00;;;5.60;;
76262;SDS011;65080;50.908;6.916;2023-06-10T08:04:06;5.93;;;5.17;;
76262;SDS011;65080;50.908;6.916;2023-06-10T08:06:34;7.60;;;5.50;;
76262;SDS011;65080;50.908;6.916;2023-06-10T08:09:03;7.90;;;6.10;;
76262;SDS011;65080;50.908;6.916;2023-06-10T08:11:31;7.67;;;6.03;;
76262;SDS011;65080;50.908;6.916;2023-06-10T08:14:00;10.03;;;6.60;;
76262;SDS011;65080;50.908;6.916;2023-06-10T08:16:30;6.67;;;5.17;;
76262;SDS011;65080;50.908;6.916;2023-06-10T08:18:58;13.63;;;6.07;;
76262;SDS011;65080;50.908;6.916;2023-06-10T08:21:26;10.37;;;6.43;;
76262;SDS011;65080;50.908;6.916;2023-06-10T08:23:55;6.83;;;5.60;;
76262;SDS011;65080;50.908;6.916;2023-06-10T08:26:23;9.40;;;6.10;;
76262;SDS011;65080;50.908;6.916;2023-06-10T08:28:52;7.43;;;5.70;;
76262;SDS011;65080;50.908;6.916;2023-06-10T08:31:21;8.67;;;6.37;;
76262;SDS011;65080;50.908;6.916;2023-06-10T08:33:50;8.27;;;5.73;;
76262;SDS011;65080;50.908;6.916;2023-06-10T08:36:19;6.10;;;5.50;;
76262;SDS011;65080;50.908;6.916;2023-06-10T08:38:47;5.63;;;5.13;;
76262;SDS011;65080;50.908;6.916;2023-06-10T08:41:17;6.63;;;5.10;;
76262;SDS011;65080;50.908;6.916;2023-06-10T08:43:48;8.70;;;6.10;;
76262;SDS011;65080;50.908;6.916;2023-06-10T08:46:22;10.53;;;5.50;;
76262;SDS011;65080;50.908;6.916;2023-06-10T08:48:52;6.73;;;6.03;;
76262;SDS011;65080;50.908;6.916;2023-06-10T08:51:23;7.27;;;6.10;;
76262;SDS011;65080;50.908;6.916;2023-06-10T08:53:55;6.60;;;5.40;;
76262;SDS011;65080;50.908;6.916;2023-06-10T08:56:29;5.97;;;5.03;;
76262;SDS011;65080;50.908;6.916;2023-06-10T08:58:58;6.83;;;5.60;;
76262;SDS011;65080;50.908;6.916;2023-06-10T09:01:27;7.13;;;5.43;;
76262;SDS011;65080;50.908;6.916;2023-06-10T09:03:57;6.73;;;5.80;;
76262;SDS011;65080;50.908;6.916;2023-06-10T09:06:27;8.37;;;5.03;;
76262;SDS011;65080;50.908;6.916;2023-06-10T09:08:55;8.20;;;5.83;;
76262;SDS011;65080;50.908;6.916;2023-06-10T09:11:29;9.70;;;5.60;;
76262;SDS011;65080;50.908;6.916;2023-06-10T09:13:57;7.40;;;5.97;;
76262;SDS011;65080;50.908;6.916;2023-06-10T09:16:25;9.17;;;5.97;;
76262;SDS011;65080;50.908;6.916;2023-06-10T09:18:54;6.60;;;5.60;;
76262;SDS011;65080;50.908;6.916;2023-06-10T09:21:24;7.70;;;5.77;;
76262;SDS011;65080;50.908;6.916;2023-06-10T09:23:52;7.50;;;5.80;;
76262;SDS011;65080;50.908;6.916;2023-06-10T09:26:21;8.33;;;4.70;;
76262;SDS011;65080;50.908;6.916;2023-06-10T09:28:57;8.50;;;5.03;;
76262;SDS011;65080;50.908;6.916;2023-06-10T09:31:31;10.60;;;6.43;;
76262;SDS011;65080;50.908;6.916;2023-06-10T09:34:06;8.00;;;5.60;;
76262;SDS011;65080;50.908;6.916;2023-06-10T09:36:37;8.20;;;6.27;;
76262;SDS011;65080;50.908;6.916;2023-06-10T09:39:13;6.33;;;5.40;;
76262;SDS011;65080;50.908;6.916;2023-06-10T09:41:43;7.50;;;5.80;;
76262;SDS011;65080;50.908;6.916;2023-06-10T09:44:14;8.70;;;5.90;;
76262;SDS011;65080;50.908;6.916;2023-06-10T09:46:44;13.17;;;5.70;;
76262;SDS011;65080;50.908;6.916;2023-06-10T09:49:14;6.33;;;5.70;;
76262;SDS011;65080;50.908;6.916;2023-06-10T09:51:51;6.10;;;5.50;;
76262;SDS011;65080;50.908;6.916;2023-06-10T09:54:20;6.67;;;5.90;;
76262;SDS011;65080;50.908;6.916;2023-06-10T09:56:49;6.10;;;5.33;;
76262;SDS011;65080;50.908;6.916;2023-06-10T09:59:28;6.07;;;5.47;;
76262;SDS011;65080;50.908;6.916;2023-06-10T10:01:57;9.33;;;5.80;;
76262;SDS011;65080;50.908;6.916;2023-06-10T10:04:27;6.30;;;5.70;;
76262;SDS011;65080;50.908;6.916;2023-06-10T10:06:57;5.67;;;5.13;;
76262;SDS011;65080;50.908;6.916;2023-06-10T10:09:26;9.80;;;5.40;;
76262;SDS011;65080;50.908;6.916;2023-06-10T10:11:54;6.00;;;5.40;;
76262;SDS011;65080;50.908;6.916;2023-06-10T10:14:23;7.73;;;5.70;;
76262;SDS011;65080;50.908;6.916;2023-06-10T10:16:52;7.83;;;5.27;;
76262;SDS011;65080;50.908;6.916;2023-06-10T10:19:23;6.40;;;5.40;;
76262;SDS011;65080;50.908;6.916;2023-06-10T10:21:59;7.43;;;5.70;;
76262;SDS011;65080;50.908;6.916;2023-06-10T10:24:32;12.80;;;5.20;;
76262;SDS011;65080;50.908;6.916;2023-06-10T10:27:04;11.13;;;5.80;;
76262;SDS011;65080;50.908;6.916;2023-06-10T10:29:46;6.90;;;5.40;;
76262;SDS011;65080;50.908;6.916;2023-06-10T10:32:17;6.33;;;5.00;;
76262;SDS011;65080;50.908;6.916;2023-06-10T10:34:48;13.33;;;5.87;;
76262;SDS011;65080;50.908;6.916;2023-06-10T10:37:22;8.73;;;5.90;;
76262;SDS011;65080;50.908;6.916;2023-06-10T10:39:51;5.57;;;4.67;;
76262;SDS011;65080;50.908;6.916;2023-06-10T10:42:19;6.03;;;4.57;;
76262;SDS011;65080;50.908;6.916;2023-06-10T10:44:48;8.13;;;6.00;;
76262;SDS011;65080;50.908;6.916;2023-06-10T10:47:17;7.10;;;5.63;;
76262;SDS011;65080;50.908;6.916;2023-06-10T10:49:50;6.63;;;5.63;;
76262;SDS011;65080;50.908;6.916;2023-06-10T10:52:21;7.87;;;5.07;;
76262;SDS011;65080;50.908;6.916;2023-06-10T10:54:50;6.87;;;5.30;;
76262;SDS011;65080;50.908;6.916;2023-06-10T10:57:21;8.03;;;5.20;;
76262;SDS011;65080;50.908;6.916;2023-06-10T10:59:51;5.43;;;4.93;;
76262;SDS011;65080;50.908;6.916;2023-06-10T11:02:33;6.23;;;5.50;;
76262;SDS011;65080;50.908;6.916;2023-06-10T11:05:05;6.67;;;4.70;;
76262;SDS011;65080;50.908;6.916;2023-06-10T11:07:36;6.80;;;4.80;;
76262;SDS011;65080;50.908;6.916;2023-06-10T11:10:06;5.27;;;4.63;;
76262;SDS011;65080;50.908;6.916;2023-06-10T11:12:50;5.67;;;4.63;;
76262;SDS011;65080;50.908;6.916;2023-06-10T11:15:22;5.57;;;5.07;;
76262;SDS011;65080;50.908;6.916;2023-06-10T11:18:07;7.53;;;5.00;;
76262;SDS011;65080;50.908;6.916;2023-06-10T11:20:50;5.53;;;4.73;;
76262;SDS011;65080;50.908;6.916;2023-06-10T11:23:37;5.63;;;5.00;;
76262;SDS011;65080;50.908;6.916;2023-06-10T11:26:11;5.17;;;4.30;;
76262;SDS011;65080;50.908;6.916;2023-06-10T11:28:40;5.57;;;4.90;;
76262;SDS011;65080;50.908;6.916;2023-06-10T11:31:11;7.60;;;5.10;;
76262;SDS011;65080;50.908;6.916;2023-06-10T11:33:47;7.83;;;4.57;;
76262;SDS011;65080;50.908;6.916;2023-06-10T11:36:19;8.10;;;4.10;;
76262;SDS011;65080;50.908;6.916;2023-06-10T11:38:49;7.73;;;4.23;;
76262;SDS011;65080;50.908;6.916;2023-06-10T11:41:20;10.60;;;4.40;;
76262;SDS011;65080;50.908;6.916;2023-06-10T11:43:48;5.27;;;4.73;;
76262;SDS011;65080;50.908;6.916;2023-06-10T11:46:17;4.80;;;4.13;;
76262;SDS011;65080;50.908;6.916;2023-06-10T11:48:48;6.97;;;4.53;;
76262;SDS011;65080;50.908;6.916;2023-06-10T11:51:17;5.47;;;4.50;;
76262;SDS011;65080;50.908;6.916;2023-06-10T11:53:45;5.97;;;4.80;;
76262;SDS011;65080;50.908;6.916;2023-06-10T11:56:20;5.10;;;4.60;;
76262;SDS011;65080;50.908;6.916;2023-06-10T11:58:52;5.20;;;4.70;;
76262;SDS011;65080;50.908;6.916;2023-06-10T12:01:22;4.90;;;4.40;;
76262;SDS011;65080;50.908;6.916;2023-06-10T12:03:59;4.80;;;4.33;;
76262;SDS011;65080;50.908;6.916;2023-06-10T12:06:37;6.60;;;4.60;;
76262;SDS011;65080;50.908;6.916;2023-06-10T12:09:06;6.00;;;4.80;;
76262;SDS011;65080;50.908;6.916;2023-06-10T12:11:52;5.93;;;4.53;;
76262;SDS011;65080;50.908;6.916;2023-06-10T12:17:20;7.07;;;4.97;;
76262;SDS011;65080;50.908;6.916;2023-06-10T12:19:50;4.87;;;4.47;;
76262;SDS011;65080;50.908;6.916;2023-06-10T12:22:18;7.30;;;4.13;;
76262;SDS011;65080;50.908;6.916;2023-06-10T12:24:57;7.00;;;4.30;;
76262;SDS011;65080;50.908;6.916;2023-06-10T12:27:28;6.73;;;4.67;;
76262;SDS011;65080;50.908;6.916;2023-06-10T12:29:57;5.87;;;3.97;;
76262;SDS011;65080;50.908;6.916;2023-06-10T12:32:37;6.67;;;4.27;;
76262;SDS011;65080;50.908;6.916;2023-06-10T12:35:07;5.20;;;4.70;;
76262;SDS011;65080;50.908;6.916;2023-06-10T12:37:37;5.77;;;4.30;;
76262;SDS011;65080;50.908;6.916;2023-06-10T12:40:09;5.03;;;4.40;;
76262;SDS011;65080;50.908;6.916;2023-06-10T12:42:39;4.87;;;4.47;;
76262;SDS011;65080;50.908;6.916;2023-06-10T12:45:08;10.83;;;4.30;;
76262;SDS011;65080;50.908;6.916;2023-06-10T12:47:39;4.73;;;4.23;;
76262;SDS011;65080;50.908;6.916;2023-06-10T12:50:08;5.17;;;4.67;;
76262;SDS011;65080;50.908;6.916;2023-06-10T12:52:39;4.97;;;4.27;;
76262;SDS011;65080;50.908;6.916;2023-06-10T12:55:09;4.10;;;3.70;;
76262;SDS011;65080;50.908;6.916;2023-06-10T12:57:48;5.10;;;3.77;;
76262;SDS011;65080;50.908;6.916;2023-06-10T13:00:18;4.50;;;3.30;;
76262;SDS011;65080;50.908;6.916;2023-06-10T13:02:47;5.23;;;3.80;;
76262;SDS011;65080;50.908;6.916;2023-06-10T13:05:17;8.67;;;3.93;;
76262;SDS011;65080;50.908;6.916;2023-06-10T13:07:46;4.90;;;3.73;;
76262;SDS011;65080;50.908;6.916;2023-06-10T13:10:14;4.87;;;4.13;;
76262;SDS011;65080;50.908;6.916;2023-06-10T13:12:44;5.07;;;4.20;;
76262;SDS011;65080;50.908;6.916;2023-06-10T13:15:16;4.37;;;3.70;;
76262;SDS011;65080;50.908;6.916;2023-06-10T13:17:44;5.90;;;4.17;;
76262;SDS011;65080;50.908;6.916;2023-06-10T13:20:16;5.53;;;3.60;;
76262;SDS011;65080;50.908;6.916;2023-06-10T13:22:44;3.60;;;3.30;;
76262;SDS011;65080;50.908;6.916;2023-06-10T13:25:14;5.83;;;3.37;;
76262;SDS011;65080;50.908;6.916;2023-06-10T13:27:42;3.53;;;3.20;;
76262;SDS011;65080;50.908;6.916;2023-06-10T13:30:11;4.17;;;3.20;;
76262;SDS011;65080;50.908;6.916;2023-06-10T13:32:41;5.17;;;3.37;;
76262;SDS011;65080;50.908;6.916;2023-06-10T13:35:09;4.60;;;3.40;;
76262;SDS011;65080;50.908;6.916;2023-06-10T13:37:38;3.63;;;3.33;;
76262;SDS011;65080;50.908;6.916;2023-06-10T13:40:06;6.07;;;3.50;;
76262;SDS011;65080;50.908;6.916;2023-06-10T13:42:36;4.40;;;3.43;;
76262;SDS011;65080;50.908;6.916;2023-06-10T13:45:05;6.00;;;3.67;;
76262;SDS011;65080;50.908;6.916;2023-06-10T13:47:36;3.77;;;3.47;;
76262;SDS011;65080;50.908;6.916;2023-06-10T13:50:07;4.33;;;3.20;;
76262;SDS011;65080;50.908;6.916;2023-06-10T13:52:36;4.57;;;3.37;;
76262;SDS011;65080;50.908;6.916;2023-06-10T13:55:04;4.50;;;3.27;;
76262;SDS011;65080;50.908;6.916;2023-06-10T13:57:34;5.03;;;3.50;;
76262;SDS011;65080;50.908;6.916;2023-06-10T14:00:02;4.47;;;3.60;;
76262;SDS011;65080;50.908;6.916;2023-06-10T14:02:31;4.80;;;3.70;;
76262;SDS011;65080;50.908;6.916;2023-06-10T14:04:59;3.50;;;3.20;;
76262;SDS011;65080;50.908;6.916;2023-06-10T14:07:29;4.43;;;3.17;;
76262;SDS011;65080;50.908;6.916;2023-06-10T14:09:57;3.60;;;3.30;;
76262;SDS011;65080;50.908;6.916;2023-06-10T14:12:26;5.23;;;3.50;;
76262;SDS011;65080;50.908;6.916;2023-06-10T14:14:54;7.77;;;3.23;;
76262;SDS011;65080;50.908;6.916;2023-06-10T14:17:22;4.20;;;3.10;;
76262;SDS011;65080;50.908;6.916;2023-06-10T14:19:51;3.53;;;3.10;;
76262;SDS011;65080;50.908;6.916;2023-06-10T14:22:19;3.20;;;2.83;;
76262;SDS011;65080;50.908;6.916;2023-06-10T14:24:48;4.43;;;3.33;;
76262;SDS011;65080;50.908;6.916;2023-06-10T14:27:16;2.90;;;2.70;;
76262;SDS011;65080;50.908;6.916;2023-06-10T14:29:45;4.67;;;3.40;;
76262;SDS011;65080;50.908;6.916;2023-06-10T14:32:13;3.90;;;3.27;;
76262;SDS011;65080;50.908;6.916;2023-06-10T14:34:41;4.30;;;3.80;;
76262;SDS011;65080;50.908;6.916;2023-06-10T14:37:11;3.30;;;3.00;;
76262;SDS011;65080;50.908;6.916;2023-06-10T14:39:39;4.27;;;3.50;;
76262;SDS011;65080;50.908;6.916;2023-06-10T14:42:08;3.30;;;3.00;;
76262;SDS011;65080;50.908;6.916;2023-06-10T14:44:37;4.87;;;3.10;;
76262;SDS011;65080;50.908;6.916;2023-06-10T14:47:05;3.47;;;3.17;;
76262;SDS011;65080;50.908;6.916;2023-06-10T14:49:33;3.10;;;2.73;;
76262;SDS011;65080;50.908;6.916;2023-06-10T14:52:02;3.33;;;2.93;;
76262;SDS011;65080;50.908;6.916;2023-06-10T14:54:30;4.47;;;3.30;;
76262;SDS011;65080;50.908;6.916;2023-06-10T14:56:58;5.32;;;3.17;;
76262;SDS011;65080;50.908;6.916;2023-06-10T14:59:28;2.75;;;2.55;;
76262;SDS011;65080;50.908;6.916;2023-06-10T15:01:56;3.70;;;3.17;;
76262;SDS011;65080;50.908;6.916;2023-06-10T15:04:27;6.15;;;3.20;;